Terminal Aerodrome Forecast
Issued by NWS Wilmington, OH

Current Version | Previous Version | Text Only | Print | Product List | Glossary Off
Versions: 1 2 3 4 5 6 7 8 9 10 11 12 13 14 15 16 17 18 19 20 21 22 23 24 25 26 27

000
FTUS41 KILN 280541
TAFCMH
TAF
KCMH 280541Z 2806/2906 04008KT 3SM -SHRA BR OVC025
     FM281000 07008KT P6SM OVC015
      TEMPO 2812/2814 OVC009
     FM281900 02006KT P6SM VCSH OVC022
     FM290000 35004KT P6SM BKN025
     FM290300 34004KT P6SM OVC007=

USA.gov is the U.S. government's official web portal to all federal, state and local government web resources and services.